• Join FlightAware (Why Join?)
  • Login
  • US Flag 
02:13PM EST


 

Airport Tracker/Info


-or-


 

Live Flight TrackerFlight Track Log ✈ EJM826 ✈ 31-Jul-2013 ✈ KSNA - KSAN

Flight Track Log - Related Links

Times and Time Zones

All times are in EDT time to prevent confusion due to time zone crossing. See the EJM826 flight status page for this flight to view local times or setup timezone preferences in your user account.

Time Position Orientation Groundspeed Altitude Reporting Facility
EDT Latitude Longitude Course Direction KTS MPH feet Rate Location/Type
02:09PM 33.6500 -117.8833 203° Southwest 152 175 900  Level Southern California TRACON
02:10PM 33.6167 -117.9000 203° Southwest 171 197 3,200 1,860 Climbing Southern California TRACON
02:11PM 33.5622 -117.9044 184° South 199 229 4,400 1,920 Climbing Los Angeles Center
02:12PM 33.5017 -117.8867 166° South 226 260 6,900 2,220 Climbing Los Angeles Center
02:13PM 33.4500 -117.8333 139° Southeast 240 276 9,100 1,920 Climbing Southern California TRACON
02:14PM 33.4000 -117.7833 140° Southeast 244 281 11,000 900 Climbing Southern California TRACON
02:15PM 33.3544 -117.7206 131° Southeast 253 291 11,000  Level Los Angeles Center
02:16PM 33.3036 -117.6511 131° Southeast 271 312 11,000  Level Los Angeles Center
02:17PM 33.2333 -117.6000 149° Southeast 291 335 11,000  Level Southern California TRACON
02:18PM 33.1667 -117.5333 140° Southeast 298 343 11,000  Level Southern California TRACON
02:19PM 33.1000 -117.4833 148° Southeast 300 345 11,000 -1,020 Level Southern California TRACON
02:20PM 33.0333 -117.4167 140° Southeast 292 336 9,000 -1,920 Descending Southern California TRACON
02:21PM 32.9667 -117.3667 148° Southeast 283 326 7,200 -1,020 Descending Southern California TRACON
02:22PM 32.9167 -117.3167 140° Southeast 238 274 7,000 -120 Descending Southern California TRACON
02:23PM 32.8833 -117.2500 121° Southeast 208 239 7,000 -660 Level Southern California TRACON
02:24PM 32.8500 -117.2000 128° Southeast 241 277 5,700 -960 Descending Southern California TRACON
02:25PM 32.8167 -117.1167 115° Southeast 241 277 5,000 -360 Descending Southern California TRACON
02:26PM 32.8000 -117.0500 107° East 206 237 5,000  Level Southern California TRACON
02:27PM 32.7833 -116.9833 107° East 196 226 5,000  Level Southern California TRACON
02:28PM 32.7667 -116.9167 107° East 205 236 5,000 -180 Level Southern California TRACON
02:29PM 32.7167 -116.9167 180° South 196 226 4,700 -600 Descending Southern California TRACON
02:30PM 32.6667 -116.9500 209° Southwest 214 246 3,800 -720 Descending Southern California TRACON
02:31PM 32.6833 -117.0000 292° West 179 206 3,300 -660 Descending Southern California TRACON
02:32PM 32.7000 -117.0500 292° West 169 194 2,600 -840 Descending Southern California TRACON
02:33PM 32.7167 -117.1000 292° West 131 151 1,700 -960 Descending Southern California TRACON
02:34PM 32.7167 -117.1500 270° West 126 145 700 -840 Descending Southern California TRACON
02:34PM 32.7264 -117.1628 312° West 134 154 400 -300 Descending Los Angeles Center
02:35PM 32.7367 -117.2008 288° West 132 152 300 -120 Descending Los Angeles Center